This is the latest recevied weather packets stored in our database for station/object DG8SF-13. If no packets are shown the sender has not sent any weather packets the latest 10 day(s).
| Time | Temp. | Humidity | Pressure | Rain* | Wind** | Luminosity | Snow |
|---|---|---|---|---|---|---|---|
| 1778052067 | 12.78° C | 84% | 1006.7 hPa | 0 mm | - | - | - |
| 1778051753 | 12.78° C | 83% | 1006.5 hPa | 0 mm | - | - | - |
| 1778051440 | 12.78° C | 83% | 1006.4 hPa | 0 mm | - | - | - |
| 1778051128 | 12.78° C | 83% | 1006.3 hPa | 0 mm | - | - | - |
| 1778050823 | 12.78° C | 82% | 1006.2 hPa | 0 mm | - | - | - |
| 1778050506 | 12.78° C | 81% | 1006.2 hPa | 0 mm | - | - | - |
| 1778050194 | 12.78° C | 81% | 1006.2 hPa | 0 mm | - | - | - |
| 1778049881 | 13.33° C | 78% | 1006.2 hPa | 0 mm | - | - | - |
| 1778049570 | 13.33° C | 79% | 1006.1 hPa | 0 mm | - | - | - |
| 1778049257 | 13.89° C | 78% | 1006.1 hPa | 0 mm | - | - | - |
| 1778048946 | 13.33° C | 81% | 1006.3 hPa | 0 mm | - | - | - |
| 1778048632 | 14.44° C | 76% | 1006.2 hPa | 0 mm | - | - | - |
| 1778048322 | 15° C | 76% | 1006.1 hPa | 0 mm | - | - | - |
| 1778048008 | 13.89° C | 80% | 1006.2 hPa | 0 mm | - | - | - |
| 1778047699 | 13.89° C | 78% | 1006.2 hPa | 0 mm | - | - | - |
| 1778047385 | 15° C | 76% | 1006.3 hPa | 0 mm | - | - | - |
| 1778047074 | 13.89° C | 79% | 1006.2 hPa | 0 mm | - | - | - |
| 1778046761 | 11.67° C | 89% | 1006.3 hPa | 0 mm | - | - | - |
| 1778046451 | 11.67° C | 85% | 1006.4 hPa | 0 mm | - | - | - |
| 1778046136 | 11.67° C | 88% | 1006.4 hPa | 0 mm | - | - | - |
| 1778045826 | 10.56° C | 93% | 1006.3 hPa | 0 mm | - | - | - |
| 1778045512 | 10° C | 98% | 1006.4 hPa | 0 mm | - | - | - |
| 1778045203 | 9.44° C | 98% | 1006.4 hPa | 0 mm | - | - | - |
| 1778044900 | 8.89° C | 98% | 1006.5 hPa | 0 mm | - | - | - |
| 1778044592 | 8.89° C | 98% | 1006.5 hPa | 0 mm | - | - | - |
* Rain latest hour (hover to see other rain measurements)
** Current wind speed in m/s (hover to see current wind gust speed)